Time;durP1;ratioP1;P1;durP2;ratioP2;P2;SDS_P1;SDS_P2;PMS_P1;PMS_P2;Temp;Humidity;BMP_temperature;BMP_pressure;BME280_temperature;BME280_humidity;BME280_pressure;Samples;Min_cycle;Max_cycle;Signal;HPM_P1;HPM_P2
2023/04/23 00:03:31;;;;;;;24.97;12.63;;;;;;;13.74;59.73;100186.97;5019189;57;1142819;-75
2023/04/23 00:08:42;;;;;;;28.40;12.93;;;;;;;13.73;59.86;100183.97;5116648;55;1142959;-77
2023/04/23 00:13:48;;;;;;;25.43;13.80;;;;;;;13.66;59.91;100181.05;5051470;56;1143085;-76
2023/04/23 00:18:54;;;;;;;22.73;13.00;;;;;;;13.63;60.12;100177.84;5020932;56;1142968;-77
2023/04/23 00:23:59;;;;;;;21.53;13.00;;;;;;;13.58;60.27;100170.33;5006238;56;1143125;-78
2023/04/23 00:29:06;;;;;;;27.07;13.60;;;;;;;13.52;60.29;100160.28;5032225;56;1142924;-77
2023/04/23 00:34:12;;;;;;;28.30;13.33;;;;;;;13.46;60.59;100157.36;5109809;56;1143014;-77
2023/04/23 00:39:18;;;;;;;25.10;14.20;;;;;;;13.41;60.87;100146.35;5072843;56;1143451;-78
2023/04/23 00:44:23;;;;;;;24.27;14.17;;;;;;;13.39;61.10;100142.52;5047653;57;1142994;-77
2023/04/23 00:49:30;;;;;;;22.87;13.93;;;;;;;13.33;61.24;100141.27;5036860;57;1143186;-76
2023/04/23 00:54:35;;;;;;;27.02;14.13;;;;;;;13.32;61.48;100132.11;5041200;57;1153852;-76
2023/04/23 00:59:42;;;;;;;27.30;13.90;;;;;;;13.25;61.58;100132.36;5067742;57;1143142;-78
2023/04/23 01:04:50;;;;;;;25.32;14.38;;;;;;;13.12;61.83;100138.46;5086183;55;1143322;-77
2023/04/23 01:09:56;;;;;;;22.47;14.13;;;;;;;13.04;62.18;100127.22;5108645;56;1143645;-77
2023/04/23 01:15:03;;;;;;;27.22;13.45;;;;;;;12.94;62.45;100127.26;5122282;55;1143165;-76
2023/04/23 01:20:09;;;;;;;25.62;14.78;;;;;;;12.86;62.68;100127.12;5121216;56;1143188;-79
2023/04/23 01:25:15;;;;;;;29.45;14.63;;;;;;;12.80;62.95;100118.42;5113660;56;1143090;-76
2023/04/23 01:30:21;;;;;;;30.40;15.53;;;;;;;12.74;63.27;100112.84;5132931;56;1142993;-77
2023/04/23 01:35:27;;;;;;;23.30;13.97;;;;;;;12.68;63.40;100110.25;5121785;56;1142873;-79
2023/04/23 01:40:33;;;;;;;28.83;13.15;;;;;;;12.63;63.63;100100.58;5053093;56;1142983;-77
2023/04/23 01:45:39;;;;;;;30.10;15.17;;;;;;;12.61;63.93;100099.39;5045053;56;1142901;-76
2023/04/23 01:50:45;;;;;;;29.07;13.80;;;;;;;12.45;64.13;100100.45;5022484;57;1143001;-76
2023/04/23 01:55:52;;;;;;;29.97;14.40;;;;;;;12.39;64.53;100094.86;5026898;57;1143044;-77
2023/04/23 02:00:58;;;;;;;24.90;13.87;;;;;;;12.35;64.82;100101.45;5047505;57;1142875;-79
2023/04/23 02:06:04;;;;;;;25.77;14.10;;;;;;;12.31;65.14;100099.07;5057435;56;1143069;-77
2023/04/23 02:11:09;;;;;;;25.73;14.77;;;;;;;12.31;65.30;100091.61;5071403;56;1142943;-78
2023/04/23 02:16:15;;;;;;;22.80;13.43;;;;;;;12.25;65.33;100094.31;5085528;56;1142992;-78
2023/04/23 02:21:21;;;;;;;30.70;15.37;;;;;;;12.17;65.59;100088.89;5041410;56;1143010;-78
2023/04/23 02:26:27;;;;;;;26.33;14.10;;;;;;;12.10;65.83;100085.59;5013041;57;1143167;-77
2023/04/23 02:31:33;;;;;;;24.80;14.60;;;;;;;12.03;65.93;100085.33;5031990;57;1143047;-76
2023/04/23 02:36:39;;;;;;;25.07;14.33;;;;;;;11.94;66.28;100078.19;5047866;56;1142858;-77
2023/04/23 02:41:44;;;;;;;25.33;14.63;;;;;;;11.88;66.51;100088.04;5126275;56;1143226;-76
2023/04/23 02:46:50;;;;;;;26.70;13.77;;;;;;;11.85;66.82;100086.98;5113456;56;1143145;-79
2023/04/23 02:51:56;;;;;;;24.80;14.10;;;;;;;11.81;67.11;100086.90;5141919;56;1142915;-78
2023/04/23 02:57:03;;;;;;;30.87;16.03;;;;;;;11.76;67.39;100087.33;5122420;56;1142957;-78
2023/04/23 03:02:09;;;;;;;22.87;15.13;;;;;;;11.69;67.57;100083.51;5040551;57;1142959;-78
2023/04/23 03:07:16;;;;;;;38.80;16.53;;;;;;;11.59;67.83;100082.66;5053325;57;1142995;-76
2023/04/23 03:12:22;;;;;;;28.40;15.23;;;;;;;11.47;68.11;100079.75;5013249;56;1143517;-78
2023/04/23 03:17:27;;;;;;;30.10;16.20;;;;;;;11.43;68.66;100075.72;5033587;56;1142947;-77
2023/04/23 03:22:33;;;;;;;35.30;15.90;;;;;;;11.35;68.80;100075.05;5036697;56;1143239;-77
2023/04/23 03:27:43;;;;;;;27.63;15.10;;;;;;;11.15;69.18;100067.52;5062035;56;1142943;-77
2023/04/23 03:32:49;;;;;;;27.83;15.10;;;;;;;11.04;69.60;100061.01;5041337;56;1146220;-78
2023/04/23 03:37:55;;;;;;;28.30;14.23;;;;;;;11.00;69.89;100058.78;5090206;56;1142951;-77
2023/04/23 03:43:01;;;;;;;27.10;16.63;;;;;;;10.98;70.29;100065.53;5126266;56;1142941;-75
2023/04/23 03:48:11;;;;;;;29.50;15.50;;;;;;;10.90;70.50;100056.92;5102865;56;1142976;-76
2023/04/23 03:53:17;;;;;;;35.17;15.05;;;;;;;10.90;70.73;100062.20;5106084;56;1142832;-77
2023/04/23 03:58:39;;;;;;;29.30;16.87;;;;;;;10.90;70.74;100062.69;5050911;56;1143161;-76
2023/04/23 04:03:45;;;;;;;37.43;16.20;;;;;;;10.92;70.88;100062.91;5180212;55;1143663;-76
2023/04/23 04:08:50;;;;;;;26.80;16.33;;;;;;;10.93;70.95;100060.63;5200512;55;1142956;-79
2023/04/23 04:13:56;;;;;;;33.90;16.33;;;;;;;10.91;71.09;100063.88;5108318;55;1143187;-78
2023/04/23 04:19:02;;;;;;;37.97;16.00;;;;;;;10.85;71.13;100064.40;5123758;56;1143090;-74
2023/04/23 04:24:10;;;;;;;28.47;16.20;;;;;;;10.85;71.37;100073.66;5095146;56;1143167;-77
2023/04/23 04:29:15;;;;;;;32.53;18.43;;;;;;;10.85;71.67;100063.08;5103860;56;1142934;-78
2023/04/23 04:34:21;;;;;;;29.60;17.37;;;;;;;10.86;71.88;100062.59;5122742;56;1143873;-77
2023/04/23 04:39:26;;;;;;;30.67;17.77;;;;;;;10.85;72.06;100062.23;5103658;56;1143340;-75
2023/04/23 04:44:32;;;;;;;31.47;16.33;;;;;;;10.87;72.09;100058.50;5017995;57;1142999;-75
2023/04/23 04:49:38;;;;;;;29.20;16.65;;;;;;;10.91;72.37;100057.27;5124083;56;1143124;-78
2023/04/23 04:54:43;;;;;;;31.03;17.37;;;;;;;10.98;72.63;100060.23;5096468;56;1143025;-78
2023/04/23 04:59:50;;;;;;;34.73;17.43;;;;;;;11.04;72.84;100058.36;5015812;57;1142961;-77
2023/04/23 05:04:56;;;;;;;28.20;17.07;;;;;;;11.10;72.95;100061.81;5058177;56;1142959;-78
2023/04/23 05:10:01;;;;;;;29.87;16.83;;;;;;;11.15;72.86;100058.77;5024519;56;1143386;-77
2023/04/23 05:15:09;;;;;;;29.13;16.23;;;;;;;11.24;72.95;100051.34;5096590;56;1143061;-77
2023/04/23 05:20:15;;;;;;;26.77;15.90;;;;;;;11.36;73.11;100056.03;5123858;56;1143167;-78
2023/04/23 05:25:21;;;;;;;24.43;15.13;;;;;;;11.49;73.32;100053.97;5104682;56;1142942;-76
2023/04/23 05:30:26;;;;;;;25.10;15.13;;;;;;;11.92;72.56;100041.23;5102649;56;1142991;-78
2023/04/23 05:35:32;;;;;;;24.18;14.95;;;;;;;11.92;72.56;100041.23;5105695;56;1143000;-77
2023/04/23 05:40:38;;;;;;;27.67;14.87;;;;;;;12.20;71.68;100036.08;5126653;56;1143019;-77
2023/04/23 05:45:44;;;;;;;40.17;14.47;;;;;;;12.43;72.17;100034.77;5106601;56;1143079;-77
2023/04/23 05:50:49;;;;;;;26.13;15.67;;;;;;;12.66;70.83;100026.01;5100982;56;1143073;-76
2023/04/23 05:55:55;;;;;;;25.27;14.30;;;;;;;12.85;70.43;100030.39;5126735;56;1142935;-77
2023/04/23 06:01:01;;;;;;;26.37;14.13;;;;;;;13.08;70.10;100026.89;5102612;56;1142917;-78
2023/04/23 06:06:07;;;;;;;28.10;14.27;;;;;;;13.28;69.04;100028.02;5182622;55;1142756;-78
2023/04/23 06:11:13;;;;;;;22.67;13.63;;;;;;;13.45;69.46;100027.67;5165872;55;1142915;-76
2023/04/23 06:16:18;;;;;;;24.20;13.80;;;;;;;13.66;68.69;100022.93;5106955;56;1143019;-75
2023/04/23 06:21:26;;;;;;;23.43;13.53;;;;;;;13.84;67.86;100018.95;5106969;56;1142870;-76
2023/04/23 06:26:31;;;;;;;20.55;12.23;;;;;;;14.00;69.13;100015.61;5107190;56;1143156;-76
2023/04/23 06:31:40;;;;;;;21.27;13.80;;;;;;;14.24;68.31;100013.13;5126916;56;1142910;-78
2023/04/23 06:36:45;;;;;;;22.00;12.33;;;;;;;14.51;67.85;100012.22;5112482;55;1142915;-78
2023/04/23 06:41:51;;;;;;;18.10;11.60;;;;;;;14.79;67.66;100012.88;5193205;55;1142821;-77
2023/04/23 06:47:02;;;;;;;17.43;9.87;;;;;;;15.05;66.89;99999.51;5208563;55;1142939;-77
2023/04/23 06:52:07;;;;;;;16.00;9.37;;;;;;;15.35;65.50;99994.95;5193632;55;1138915;-78
2023/04/23 06:57:13;;;;;;;16.70;8.43;;;;;;;15.63;66.40;99992.87;5193945;55;1138994;-77
2023/04/23 07:02:18;;;;;;;18.40;8.85;;;;;;;15.99;65.05;99986.75;5214210;55;1138784;-78
2023/04/23 07:07:24;;;;;;;20.35;8.55;;;;;;;16.26;64.23;99970.87;5193711;55;1138798;-79
2023/04/23 07:12:30;;;;;;;14.53;8.33;;;;;;;16.47;63.17;99969.02;5123126;55;1138631;-78
2023/04/23 07:17:36;;;;;;;12.40;7.87;;;;;;;16.75;62.56;99971.64;5170153;55;1138956;-79
2023/04/23 07:22:41;;;;;;;14.70;7.07;;;;;;;17.02;62.63;99971.70;5213915;55;1138920;-76
2023/04/23 07:27:49;;;;;;;12.33;7.17;;;;;;;17.27;61.01;99967.05;5162152;55;1138834;-76
2023/04/23 07:32:55;;;;;;;16.50;6.63;;;;;;;17.46;59.67;99969.79;5193841;55;1139023;-77
2023/04/23 07:38:01;;;;;;;12.70;6.67;;;;;;;17.70;61.55;99962.16;5186780;55;1138717;-76
2023/04/23 07:43:07;;;;;;;7.10;4.93;;;;;;;18.03;59.70;99956.02;5107264;56;1138686;-76
2023/04/23 07:48:12;;;;;;;11.50;5.27;;;;;;;18.22;56.41;99952.83;5087493;56;1136746;-77
2023/04/23 07:53:18;;;;;;;9.13;5.28;;;;;;;18.37;54.34;99957.70;5128254;55;1138747;-78
2023/04/23 07:58:25;;;;;;;15.90;6.40;;;;;;;18.44;54.84;99957.31;5128158;55;1136858;-76
2023/04/23 08:03:31;;;;;;;10.30;5.37;;;;;;;18.64;55.25;99955.47;5133617;55;1138763;-78
2023/04/23 08:08:37;;;;;;;12.70;4.70;;;;;;;18.81;53.16;99945.69;5100339;56;1138857;-75
2023/04/23 08:13:42;;;;;;;14.40;4.67;;;;;;;19.04;52.83;99953.63;5128435;55;1138722;-77
2023/04/23 08:18:48;;;;;;;10.37;4.73;;;;;;;19.15;52.64;99945.60;5113714;55;1138731;-79
2023/04/23 08:23:54;;;;;;;9.07;5.03;;;;;;;19.33;52.33;99951.39;5105561;55;1138746;-76
2023/04/23 08:29:03;;;;;;;17.87;4.93;;;;;;;19.40;52.19;99937.52;5116881;56;1136788;-78
2023/04/23 08:34:09;;;;;;;9.20;5.30;;;;;;;19.49;51.38;99945.82;5107592;55;1138770;-76
2023/04/23 08:39:14;;;;;;;6.00;4.73;;;;;;;19.64;50.02;99943.08;5112864;55;1146535;-79
2023/04/23 08:44:26;;;;;;;8.70;4.60;;;;;;;19.73;51.17;99925.81;5117463;56;1136655;-77
2023/04/23 08:49:34;;;;;;;8.78;5.17;;;;;;;19.90;49.04;99911.62;5108933;55;1136741;-76
2023/04/23 08:54:44;;;;;;;9.73;4.87;;;;;;;20.04;47.44;99916.06;5098458;55;1136648;-76
2023/04/23 08:59:50;;;;;;;8.57;4.57;;;;;;;20.08;49.52;99907.12;5125733;55;1136626;-79
2023/04/23 09:04:56;;;;;;;11.03;4.65;;;;;;;20.25;48.69;99905.28;5124116;55;1136924;-77
2023/04/23 09:10:04;;;;;;;6.30;3.70;;;;;;;20.44;48.26;99896.24;5105983;55;1138906;-76
2023/04/23 09:15:11;;;;;;;10.58;4.90;;;;;;;20.72;47.41;99890.29;5127106;55;1136535;-76
2023/04/23 09:20:18;;;;;;;5.92;3.67;;;;;;;20.92;47.74;99889.87;5106952;55;1138878;-76
2023/04/23 09:25:24;;;;;;;6.30;4.07;;;;;;;21.15;46.54;99882.79;5106249;55;1136657;-75
2023/04/23 09:30:30;;;;;;;6.40;4.05;;;;;;;21.31;44.77;99891.03;5124615;55;1136870;-77
2023/04/23 09:35:37;;;;;;;6.97;4.08;;;;;;;21.29;44.47;99883.16;5122783;55;1136796;-79
2023/04/23 09:40:43;;;;;;;9.35;3.25;;;;;;;21.32;44.10;99878.73;5105864;55;1136822;-79
2023/04/23 09:45:50;;;;;;;9.23;3.22;;;;;;;21.44;44.49;99866.84;5097180;56;1136828;-78
2023/04/23 09:50:56;;;;;;;6.00;3.40;;;;;;;21.61;43.51;99860.55;5118448;55;1136729;-79
2023/04/23 09:56:01;;;;;;;10.53;3.12;;;;;;;21.78;43.16;99836.22;5148639;55;1136632;-77
2023/04/23 10:01:09;;;;;;;6.62;3.77;;;;;;;21.84;43.83;99848.03;5102932;55;1138632;-78
2023/04/23 10:06:15;;;;;;;9.63;3.95;;;;;;;21.96;43.11;99840.97;5128032;55;1136911;-78
2023/04/23 10:11:20;;;;;;;12.20;4.35;;;;;;;22.12;43.73;99839.73;5107422;55;1136825;-77
2023/04/23 10:16:26;;;;;;;13.40;4.37;;;;;;;22.18;42.09;99828.92;5107778;56;1138765;-75
2023/04/23 10:21:34;;;;;;;9.93;4.30;;;;;;;22.28;44.00;99823.12;5136327;55;1138804;-76
2023/04/23 10:26:42;;;;;;;5.28;3.42;;;;;;;22.55;43.93;99815.77;5140765;55;1136579;-78
2023/04/23 10:31:48;;;;;;;5.15;3.20;;;;;;;22.68;41.79;99818.39;5107280;56;1136597;-77
2023/04/23 10:36:56;;;;;;;4.58;3.08;;;;;;;22.76;39.10;99812.25;5131553;55;1136573;-79
2023/04/23 10:42:03;;;;;;;5.15;2.98;;;;;;;22.74;38.59;99796.81;5150477;55;1136758;-77
2023/04/23 10:47:15;;;;;;;9.30;4.20;;;;;;;22.93;39.46;99797.75;5123917;55;1136628;-78
2023/04/23 10:52:21;;;;;;;8.27;3.77;;;;;;;22.94;39.30;99801.27;5108250;56;1136780;-76
2023/04/23 10:57:27;;;;;;;7.53;3.30;;;;;;;23.01;40.58;99800.20;5144442;55;1136744;-79
2023/04/23 11:02:40;;;;;;;4.10;2.80;;;;;;;23.15;39.74;99795.55;5072282;56;1136672;-77
2023/04/23 11:08:05;;;;;;;6.77;3.00;;;;;;;23.40;39.57;99799.61;5081176;56;1136840;-79
2023/04/23 11:13:27;;;;;;;8.63;3.08;;;;;;;23.53;39.79;99790.63;5075502;56;1136787;-78
2023/04/23 11:18:54;;;;;;;6.78;3.60;;;;;;;23.62;37.80;99796.87;5051950;56;1136567;-78
2023/04/23 11:24:02;;;;;;;11.15;7.28;;;;;;;23.71;37.59;99786.08;5055226;56;1136642;-76
2023/04/23 11:29:11;;;;;;;3.52;3.00;;;;;;;23.83;39.69;99793.74;5078255;56;1138739;-78
2023/04/23 11:34:17;;;;;;;7.45;3.30;;;;;;;24.03;38.37;99787.32;5097370;56;1136673;-77
2023/04/23 11:39:23;;;;;;;11.03;3.85;;;;;;;23.95;37.81;99776.83;5048193;55;1136708;-78
2023/04/23 11:44:30;;;;;;;13.50;3.85;;;;;;;23.81;38.03;99769.39;5032177;55;1138888;-79
2023/04/23 11:49:38;;;;;;;7.40;2.98;;;;;;;23.67;39.49;99774.09;5116800;56;1138835;-76
2023/04/23 11:54:44;;;;;;;9.15;2.80;;;;;;;23.73;38.43;99771.01;5097016;56;1136746;-76
2023/04/23 11:59:49;;;;;;;6.70;2.58;;;;;;;23.80;36.90;99767.20;5096678;56;1136869;-76
2023/04/23 12:04:55;;;;;;;9.53;3.00;;;;;;;23.77;37.71;99777.63;5084261;56;1136759;-75
2023/04/23 12:10:00;;;;;;;4.75;2.35;;;;;;;23.59;38.84;99780.28;5025004;56;1136580;-76
2023/04/23 12:15:10;;;;;;;3.30;2.47;;;;;;;23.28;38.01;99786.00;5030708;56;1136827;-77
2023/04/23 12:20:22;;;;;;;4.85;2.45;;;;;;;23.11;38.12;99795.15;5038455;57;1137114;-78
2023/04/23 12:25:28;;;;;;;3.73;2.27;;;;;;;22.91;39.16;99790.95;4995379;57;1136865;-77
2023/04/23 12:30:36;;;;;;;4.67;2.83;;;;;;;22.83;40.15;99795.23;4995398;57;1136777;-76
2023/04/23 12:35:49;;;;;;;4.12;2.20;;;;;;;22.68;41.33;99796.31;5014390;57;1136589;-75
2023/04/23 12:40:57;;;;;;;9.08;3.05;;;;;;;22.43;42.61;99800.79;5019843;56;1136606;-78
2023/04/23 12:46:02;;;;;;;4.83;2.62;;;;;;;22.34;44.04;99806.91;5030950;56;1136620;-76
2023/04/23 12:51:08;;;;;;;3.85;2.70;;;;;;;22.16;44.51;99804.06;5014434;58;1136889;-77
2023/04/23 12:56:14;;;;;;;7.78;2.65;;;;;;;21.96;45.71;99808.66;4994976;57;1136691;-78
2023/04/23 13:01:19;;;;;;;7.53;3.20;;;;;;;21.72;47.70;99808.77;4995333;57;1136915;-76
2023/04/23 13:06:25;;;;;;;6.17;3.33;;;;;;;21.49;49.84;99824.02;4994379;57;1136723;-79
2023/04/23 13:11:31;;;;;;;5.58;2.52;;;;;;;21.12;52.94;99837.48;5008772;57;1136731;-78
2023/04/23 13:16:37;;;;;;;2.92;2.70;;;;;;;20.94;53.99;99832.67;4943048;57;1136707;-74
2023/04/23 13:21:42;;;;;;;8.45;3.08;;;;;;;20.86;55.24;99837.41;5171769;55;1136855;-77
2023/04/23 13:26:48;;;;;;;6.40;3.45;;;;;;;20.85;55.45;99825.83;5152108;55;1136727;-78
2023/04/23 13:31:57;;;;;;;3.20;2.43;;;;;;;20.86;56.35;99822.11;5111822;55;1136713;-75
2023/04/23 13:37:08;;;;;;;5.33;3.22;;;;;;;20.86;56.26;99834.21;5128863;55;1136697;-79
2023/04/23 13:42:11;;;;;;;7.05;3.40;;;;;;;20.73;56.58;99821.25;5095901;56;1136714;-77
2023/04/23 13:47:16;;;;;;;4.55;3.35;;;;;;;20.67;56.82;99828.25;5108230;55;1136621;-76
2023/04/23 13:52:22;;;;;;;6.95;3.90;;;;;;;20.58;56.64;99824.92;5122908;55;1136841;-79
2023/04/23 13:57:28;;;;;;;8.03;4.42;;;;;;;20.57;58.71;99820.57;5101812;55;1136653;-76
2023/04/23 14:02:34;;;;;;;4.97;3.60;;;;;;;20.59;59.50;99818.52;5110651;55;1136784;-80
2023/04/23 14:07:39;;;;;;;3.30;3.07;;;;;;;20.54;58.88;99816.11;5107583;55;1136883;-78
2023/04/23 14:12:46;;;;;;;8.30;3.60;;;;;;;20.52;59.13;99812.27;5133460;55;1136744;-77
2023/04/23 14:17:51;;;;;;;3.92;3.50;;;;;;;20.52;59.81;99817.65;5103324;55;1136771;-77
2023/04/23 14:23:03;;;;;;;6.10;2.87;;;;;;;20.40;61.30;99826.48;5016877;57;1136557;-78
2023/04/23 14:28:31;;;;;;;6.15;2.70;;;;;;;20.20;61.29;99830.36;5193479;55;1136798;-77
2023/04/23 14:33:36;;;;;;;6.67;2.33;;;;;;;19.98;62.47;99832.31;5137599;55;1136724;-74
2023/04/23 14:38:43;;;;;;;9.98;2.87;;;;;;;19.76;62.62;99838.23;5155015;55;1136724;-79
2023/04/23 14:43:48;;;;;;;4.05;2.77;;;;;;;19.56;66.01;99846.62;5127578;56;1136688;-78
2023/04/23 14:48:54;;;;;;;6.47;2.37;;;;;;;19.03;72.97;99855.98;5107609;56;1136657;-76
2023/04/23 14:53:59;;;;;;;3.30;2.37;;;;;;;18.63;73.88;99843.48;5107563;56;1136742;-78
2023/04/23 14:59:06;;;;;;;3.20;2.87;;;;;;;18.47;76.04;99851.17;5206697;55;1136713;-75
2023/04/23 15:04:12;;;;;;;9.08;4.05;;;;;;;18.41;76.88;99849.73;5180125;55;1136909;-79
2023/04/23 15:09:18;;;;;;;4.33;2.55;;;;;;;18.45;79.34;99843.00;5115083;55;1136703;-77
2023/04/23 15:14:32;;;;;;;5.83;3.10;;;;;;;18.56;81.20;99838.00;5117885;56;1136671;-77
2023/04/23 15:19:37;;;;;;;6.67;4.35;;;;;;;18.58;80.39;99838.67;5096529;56;1136622;-76
2023/04/23 15:24:43;;;;;;;22.80;7.50;;;;;;;18.67;80.13;99836.70;5107962;56;1136738;-75
2023/04/23 15:29:49;;;;;;;34.20;10.32;;;;;;;18.78;81.39;99838.92;5157950;55;1138664;-80
2023/04/23 15:34:55;;;;;;;17.35;9.35;;;;;;;18.83;82.12;99828.95;5193630;55;1140861;-80
2023/04/23 15:40:01;;;;;;;9.50;4.75;;;;;;;18.86;81.81;99823.23;5131750;55;1138805;-81
2023/04/23 15:45:11;;;;;;;19.73;7.28;;;;;;;18.83;81.77;99815.56;5127500;56;1136641;-76
2023/04/23 15:50:21;;;;;;;7.67;4.47;;;;;;;18.78;81.43;99814.81;5107008;56;1138782;-80
2023/04/23 15:55:24;;;;;;;17.33;4.33;;;;;;;18.78;81.65;99807.28;5107638;56;1136631;-79
2023/04/23 16:00:32;;;;;;;8.30;4.70;;;;;;;18.82;81.08;99801.33;5037837;57;1139287;-76
2023/04/23 16:05:38;;;;;;;17.55;8.50;;;;;;;18.85;80.72;99801.47;5055639;57;1136600;-77
2023/04/23 16:10:44;;;;;;;12.45;7.30;;;;;;;18.86;80.96;99790.56;5173010;55;1139016;-77
2023/04/23 16:15:49;;;;;;;8.20;4.93;;;;;;;18.81;81.39;99800.18;5173160;55;1138763;-76
2023/04/23 16:20:55;;;;;;;20.40;13.93;;;;;;;18.78;80.89;99799.24;5193663;55;1136641;-76
2023/04/23 16:26:06;;;;;;;13.27;7.63;;;;;;;18.76;81.27;99799.43;5121725;55;1140860;-77
2023/04/23 16:31:09;;;;;;;36.77;25.53;;;;;;;18.66;81.59;99792.69;5182690;55;1138690;-76
2023/04/23 16:36:14;;;;;;;36.37;25.37;;;;;;;18.56;81.84;99792.47;5203080;55;1141115;-76
2023/04/23 16:41:21;;;;;;;16.64;11.92;;;;;;;18.55;82.03;99793.99;5117423;55;1140941;-77
2023/04/23 16:46:29;;;;;;;12.75;6.60;;;;;;;18.52;82.72;99795.19;5080883;56;1140980;-75
2023/04/23 16:51:35;;;;;;;8.85;4.92;;;;;;;18.40;82.69;99792.68;5097049;56;1138863;-77
2023/04/23 16:56:43;;;;;;;8.58;4.44;;;;;;;18.28;84.17;99796.85;5117318;56;1136732;-78
2023/04/23 17:01:47;;;;;;;7.43;4.30;;;;;;;18.21;84.00;99807.97;5098543;55;1136622;-76
2023/04/23 17:06:53;;;;;;;7.33;4.10;;;;;;;18.17;84.55;99805.36;5171732;55;1136537;-78
2023/04/23 17:11:59;;;;;;;6.57;5.30;;;;;;;18.06;85.97;99801.28;5192392;55;1136524;-79
2023/04/23 17:17:04;;;;;;;6.70;5.13;;;;;;;17.98;88.82;99796.55;5169750;55;1136972;-80
2023/04/23 17:22:10;;;;;;;6.53;5.33;;;;;;;17.92;88.15;99804.78;5181435;55;1136715;-78
2023/04/23 17:27:15;;;;;;;8.50;5.47;;;;;;;17.77;87.45;99800.76;5203895;55;1136572;-80
2023/04/23 17:32:21;;;;;;;15.37;9.13;;;;;;;17.72;88.54;99793.78;5202841;55;1137005;-77
2023/04/23 17:37:26;;;;;;;13.74;11.24;;;;;;;17.71;89.21;99795.33;5170303;55;1138736;-76
2023/04/23 17:42:32;;;;;;;33.50;24.67;;;;;;;17.68;91.06;99793.84;5176322;55;1140891;-79
2023/04/23 17:47:39;;;;;;;19.23;12.90;;;;;;;17.70;89.77;99792.33;5198448;55;1140899;-79
2023/04/23 17:52:45;;;;;;;17.90;10.83;;;;;;;17.76;89.67;99784.39;5180118;55;1140792;-79
2023/04/23 17:57:51;;;;;;;18.27;11.17;;;;;;;17.84;89.07;99787.50;5177862;55;1140887;-77
2023/04/23 18:02:57;;;;;;;19.47;9.83;;;;;;;17.84;89.46;99791.00;5090409;55;1140900;-77
2023/04/23 18:08:05;;;;;;;11.33;7.53;;;;;;;17.78;89.05;99793.56;5144126;55;1138906;-78
2023/04/23 18:13:10;;;;;;;12.73;8.93;;;;;;;17.66;89.24;99801.22;5097578;56;1139183;-76
2023/04/23 18:18:17;;;;;;;17.37;12.00;;;;;;;17.62;89.74;99807.90;5129140;55;1138794;-78
2023/04/23 18:23:24;;;;;;;30.30;16.20;;;;;;;17.60;90.11;99808.58;5097380;55;1140826;-78
2023/04/23 18:28:31;;;;;;;35.87;20.93;;;;;;;17.59;90.17;99807.75;5132661;55;1140992;-79
2023/04/23 18:33:44;;;;;;;14.20;8.23;;;;;;;17.68;90.76;99810.39;5194218;55;1140977;-76
2023/04/23 18:38:50;;;;;;;22.10;12.13;;;;;;;17.74;90.47;99808.31;5172907;55;1138645;-75
2023/04/23 18:43:58;;;;;;;11.10;6.83;;;;;;;17.76;90.23;99811.64;5107207;56;1140753;-78
2023/04/23 18:49:26;;;;;;;8.90;6.33;;;;;;;17.68;89.85;99805.05;5107426;56;1138694;-74
2023/04/23 18:54:32;;;;;;;15.95;9.63;;;;;;;17.59;90.11;99813.09;5107720;56;1136775;-78
2023/04/23 18:59:38;;;;;;;17.12;11.28;;;;;;;17.47;90.39;99811.88;5205676;55;1138840;-79
2023/04/23 19:04:43;;;;;;;19.53;12.63;;;;;;;17.46;90.85;99799.52;5154697;55;1141295;-79
2023/04/23 19:09:49;;;;;;;16.00;9.93;;;;;;;17.44;90.53;99808.22;4978318;56;1140835;-78
2023/04/23 19:14:55;;;;;;;12.03;9.37;;;;;;;17.40;90.74;99800.77;5066147;56;1138792;-77
2023/04/23 19:20:00;;;;;;;21.10;11.17;;;;;;;17.36;91.17;99809.64;5127433;56;1138713;-78
2023/04/23 19:25:07;;;;;;;18.50;10.73;;;;;;;17.10;92.03;99816.70;5041134;55;1140824;-79
2023/04/23 19:30:12;;;;;;;37.33;19.93;;;;;;;16.87;92.75;99815.34;5063307;56;1141259;-79
2023/04/23 19:35:18;;;;;;;20.17;11.30;;;;;;;16.82;93.94;99811.02;5031985;57;1140892;-75
2023/04/23 19:40:24;;;;;;;12.83;8.53;;;;;;;16.86;94.30;99806.16;5078682;56;1140902;-77
2023/04/23 19:45:31;;;;;;;12.15;7.97;;;;;;;16.78;94.20;99810.23;5108586;56;1139054;-78
2023/04/23 19:50:36;;;;;;;12.80;7.25;;;;;;;16.71;94.67;99812.77;5033329;57;1138757;-77
2023/04/23 19:55:42;;;;;;;10.53;8.18;;;;;;;16.75;95.68;99802.57;5122852;55;1138835;-79
2023/04/23 20:00:48;;;;;;;17.25;12.25;;;;;;;16.84;95.53;99796.16;5120986;55;1138869;-78
2023/04/23 20:05:57;;;;;;;17.47;10.37;;;;;;;16.95;95.17;99794.44;5081934;56;1141021;-79
2023/04/23 20:11:00;;;;;;;13.57;9.17;;;;;;;17.01;94.64;99798.22;5043847;56;1140941;-79
2023/04/23 20:16:07;;;;;;;13.07;8.43;;;;;;;17.10;95.70;99789.98;5084177;56;1138850;-78
2023/04/23 20:21:12;;;;;;;12.60;9.10;;;;;;;17.18;95.62;99792.58;5084268;56;1138691;-79
2023/04/23 20:26:19;;;;;;;23.33;13.53;;;;;;;17.21;95.59;99794.90;5053623;55;1138785;-78
2023/04/23 20:31:25;;;;;;;29.12;16.80;;;;;;;17.19;95.05;99795.58;4955289;56;1140810;-79
2023/04/23 20:36:32;;;;;;;33.15;18.67;;;;;;;17.16;94.86;99786.58;4988403;57;1140930;-79
2023/04/23 20:41:38;;;;;;;23.70;14.23;;;;;;;17.13;94.29;99789.60;5084830;56;1140820;-78
2023/04/23 20:46:46;;;;;;;20.17;12.53;;;;;;;17.02;93.29;99794.03;5129918;55;1140992;-79
2023/04/23 20:51:51;;;;;;;25.63;15.63;;;;;;;16.95;94.45;99801.11;5126015;55;1140761;-77
2023/04/23 20:56:57;;;;;;;26.27;15.63;;;;;;;16.94;94.81;99787.93;5133899;55;1140898;-77
2023/04/23 21:02:05;;;;;;;32.03;18.27;;;;;;;16.88;94.45;99778.27;5107801;55;1140827;-78
2023/04/23 21:07:10;;;;;;;33.60;16.73;;;;;;;16.73;93.72;99773.88;5105114;56;1140695;-77
2023/04/23 21:12:15;;;;;;;24.37;14.30;;;;;;;16.53;93.89;99767.61;5125963;55;1140779;-78
2023/04/23 21:17:23;;;;;;;35.40;18.20;;;;;;;16.41;94.55;99766.84;5186560;55;1140853;-78
2023/04/23 21:22:30;;;;;;;31.90;17.03;;;;;;;16.32;94.67;99763.91;5158110;55;1140864;-78
2023/04/23 21:27:36;;;;;;;35.57;19.10;;;;;;;16.31;95.56;99768.91;5193112;55;1140773;-78
2023/04/23 21:32:41;;;;;;;41.07;20.80;;;;;;;16.28;95.55;99762.08;5163145;55;1140833;-75
2023/04/23 21:37:47;;;;;;;86.27;40.10;;;;;;;16.28;96.14;99755.91;5112855;56;1140752;-78
2023/04/23 21:42:53;;;;;;;120.93;54.77;;;;;;;16.14;94.63;99749.47;5029004;57;1140762;-77
2023/04/23 21:47:59;;;;;;;139.37;61.63;;;;;;;15.92;94.58;99740.38;5193401;55;1143147;-78
2023/04/23 21:53:05;;;;;;;170.23;70.67;;;;;;;15.83;94.95;99737.42;5172927;55;1143080;-78
2023/04/23 21:58:11;;;;;;;113.50;52.70;;;;;;;15.82;95.99;99733.92;5172352;55;1142902;-78
2023/04/23 22:03:17;;;;;;;86.87;39.47;;;;;;;15.79;96.09;99728.92;5192864;56;1142868;-78
2023/04/23 22:08:24;;;;;;;69.60;32.37;;;;;;;15.68;95.57;99727.97;5109988;56;1140789;-78
2023/04/23 22:13:29;;;;;;;58.63;21.87;;;;;;;15.60;96.60;99725.80;5087215;56;1140805;-78
2023/04/23 22:18:35;;;;;;;46.73;18.87;;;;;;;15.49;96.59;99725.64;5087093;56;1140877;-77
2023/04/23 22:23:41;;;;;;;30.37;16.37;;;;;;;15.48;96.84;99723.47;5080892;56;1150613;-78
2023/04/23 22:28:46;;;;;;;34.17;15.90;;;;;;;15.45;96.89;99719.81;5087299;56;1140992;-78
2023/04/23 22:33:52;;;;;;;35.63;15.70;;;;;;;15.37;97.14;99714.52;5087187;56;1140856;-78
2023/04/23 22:38:58;;;;;;;34.77;16.13;;;;;;;15.33;97.58;99715.01;5156413;55;1140657;-78
2023/04/23 22:44:03;;;;;;;29.03;14.53;;;;;;;15.32;97.74;99706.69;5117143;56;1140827;-78
2023/04/23 22:49:09;;;;;;;29.57;15.03;;;;;;;15.31;97.46;99706.34;5013541;56;1140884;-78
2023/04/23 22:54:16;;;;;;;38.67;18.23;;;;;;;15.33;97.64;99711.84;5172838;55;1140978;-78
2023/04/23 22:59:22;;;;;;;45.67;19.67;;;;;;;15.21;96.90;99696.39;5152404;55;1140852;-78
2023/04/23 23:04:28;;;;;;;46.27;17.80;;;;;;;15.08;97.24;99685.75;5156279;55;1141026;-78